sensor_id;sensor_type;location;lat;lon;timestamp;temperature;humidity
10249;DHT22;5169;50.560;9.714;2023-12-07T00:01:11;2.40;99.90
10249;DHT22;5169;50.560;9.714;2023-12-07T00:03:36;2.40;99.90
10249;DHT22;5169;50.560;9.714;2023-12-07T00:06:02;2.30;99.90
10249;DHT22;5169;50.560;9.714;2023-12-07T00:08:28;2.30;99.90
10249;DHT22;5169;50.560;9.714;2023-12-07T00:10:53;2.40;99.90
10249;DHT22;5169;50.560;9.714;2023-12-07T00:13:19;2.40;99.90
10249;DHT22;5169;50.560;9.714;2023-12-07T00:15:47;2.30;99.90
10249;DHT22;5169;50.560;9.714;2023-12-07T00:18:13;2.40;99.90
10249;DHT22;5169;50.560;9.714;2023-12-07T00:20:38;2.40;99.90
10249;DHT22;5169;50.560;9.714;2023-12-07T00:23:04;2.40;99.90
10249;DHT22;5169;50.560;9.714;2023-12-07T00:25:30;2.30;99.90
10249;DHT22;5169;50.560;9.714;2023-12-07T00:27:55;2.20;99.90
10249;DHT22;5169;50.560;9.714;2023-12-07T00:30:21;2.20;99.90
10249;DHT22;5169;50.560;9.714;2023-12-07T00:32:48;2.20;99.90
10249;DHT22;5169;50.560;9.714;2023-12-07T00:35:14;2.10;99.90
10249;DHT22;5169;50.560;9.714;2023-12-07T00:37:41;2.20;99.90
10249;DHT22;5169;50.560;9.714;2023-12-07T00:40:07;2.30;99.90
10249;DHT22;5169;50.560;9.714;2023-12-07T00:42:33;2.20;99.90
10249;DHT22;5169;50.560;9.714;2023-12-07T00:45:00;2.30;99.90
10249;DHT22;5169;50.560;9.714;2023-12-07T00:47:28;2.40;99.90
10249;DHT22;5169;50.560;9.714;2023-12-07T00:49:56;2.30;99.90
10249;DHT22;5169;50.560;9.714;2023-12-07T00:52:24;2.40;99.90
10249;DHT22;5169;50.560;9.714;2023-12-07T00:54:50;2.50;99.90
10249;DHT22;5169;50.560;9.714;2023-12-07T00:57:15;2.50;99.90
10249;DHT22;5169;50.560;9.714;2023-12-07T00:59:41;2.50;99.90
10249;DHT22;5169;50.560;9.714;2023-12-07T01:02:06;2.50;99.90
10249;DHT22;5169;50.560;9.714;2023-12-07T01:04:35;2.50;99.90
10249;DHT22;5169;50.560;9.714;2023-12-07T01:07:00;2.50;99.90
10249;DHT22;5169;50.560;9.714;2023-12-07T01:09:28;2.50;99.90
10249;DHT22;5169;50.560;9.714;2023-12-07T01:11:54;2.60;99.90
10249;DHT22;5169;50.560;9.714;2023-12-07T01:14:19;2.60;99.90
10249;DHT22;5169;50.560;9.714;2023-12-07T01:16:45;2.60;99.90
10249;DHT22;5169;50.560;9.714;2023-12-07T01:19:13;2.40;99.90
10249;DHT22;5169;50.560;9.714;2023-12-07T01:21:40;2.40;99.90
10249;DHT22;5169;50.560;9.714;2023-12-07T01:24:07;2.50;99.90
10249;DHT22;5169;50.560;9.714;2023-12-07T01:26:32;2.50;99.90
10249;DHT22;5169;50.560;9.714;2023-12-07T01:28:58;2.50;99.90
10249;DHT22;5169;50.560;9.714;2023-12-07T01:31:23;2.60;99.90
10249;DHT22;5169;50.560;9.714;2023-12-07T01:33:49;2.60;99.90
10249;DHT22;5169;50.560;9.714;2023-12-07T01:36:14;2.60;99.90
10249;DHT22;5169;50.560;9.714;2023-12-07T01:38:40;2.50;99.90
10249;DHT22;5169;50.560;9.714;2023-12-07T01:41:09;2.40;99.90
10249;DHT22;5169;50.560;9.714;2023-12-07T01:43:34;2.40;99.90
10249;DHT22;5169;50.560;9.714;2023-12-07T01:46:00;2.50;99.90
10249;DHT22;5169;50.560;9.714;2023-12-07T01:48:26;2.60;99.90
10249;DHT22;5169;50.560;9.714;2023-12-07T01:50:56;2.60;99.90
10249;DHT22;5169;50.560;9.714;2023-12-07T01:53:26;2.60;99.90
10249;DHT22;5169;50.560;9.714;2023-12-07T01:55:54;2.60;99.90
10249;DHT22;5169;50.560;9.714;2023-12-07T01:58:21;2.50;99.90
10249;DHT22;5169;50.560;9.714;2023-12-07T02:00:47;2.50;99.90
10249;DHT22;5169;50.560;9.714;2023-12-07T02:03:13;2.40;99.90
10249;DHT22;5169;50.560;9.714;2023-12-07T02:05:43;2.40;99.90
10249;DHT22;5169;50.560;9.714;2023-12-07T02:08:11;2.30;99.90
10249;DHT22;5169;50.560;9.714;2023-12-07T02:10:36;2.30;99.90
10249;DHT22;5169;50.560;9.714;2023-12-07T02:13:02;2.30;99.90
10249;DHT22;5169;50.560;9.714;2023-12-07T02:15:30;2.40;99.90
10249;DHT22;5169;50.560;9.714;2023-12-07T02:23:23;2.40;99.90
10249;DHT22;5169;50.560;9.714;2023-12-07T02:25:56;2.60;99.90
10249;DHT22;5169;50.560;9.714;2023-12-07T02:28:24;2.70;99.90
10249;DHT22;5169;50.560;9.714;2023-12-07T02:30:50;2.70;99.90
10249;DHT22;5169;50.560;9.714;2023-12-07T02:33:15;2.60;99.90
10249;DHT22;5169;50.560;9.714;2023-12-07T02:35:47;2.60;99.90
10249;DHT22;5169;50.560;9.714;2023-12-07T02:38:16;2.50;99.90
10249;DHT22;5169;50.560;9.714;2023-12-07T02:40:45;2.50;99.90
10249;DHT22;5169;50.560;9.714;2023-12-07T02:43:14;2.50;99.90
10249;DHT22;5169;50.560;9.714;2023-12-07T02:45:41;2.40;99.90
10249;DHT22;5169;50.560;9.714;2023-12-07T02:48:12;2.50;99.90
10249;DHT22;5169;50.560;9.714;2023-12-07T02:50:40;2.40;99.90
10249;DHT22;5169;50.560;9.714;2023-12-07T02:53:06;2.40;99.90
10249;DHT22;5169;50.560;9.714;2023-12-07T02:55:31;2.40;99.90
10249;DHT22;5169;50.560;9.714;2023-12-07T02:57:57;2.50;99.90
10249;DHT22;5169;50.560;9.714;2023-12-07T03:00:25;2.40;99.90
10249;DHT22;5169;50.560;9.714;2023-12-07T03:02:50;2.40;99.90
10249;DHT22;5169;50.560;9.714;2023-12-07T03:05:16;2.30;99.90
10249;DHT22;5169;50.560;9.714;2023-12-07T03:07:42;2.40;99.90
10249;DHT22;5169;50.560;9.714;2023-12-07T03:10:08;2.40;99.90
10249;DHT22;5169;50.560;9.714;2023-12-07T03:12:35;2.40;99.90
10249;DHT22;5169;50.560;9.714;2023-12-07T03:15:03;2.40;99.90
10249;DHT22;5169;50.560;9.714;2023-12-07T03:17:30;2.30;99.90
10249;DHT22;5169;50.560;9.714;2023-12-07T03:19:55;2.20;99.90
10249;DHT22;5169;50.560;9.714;2023-12-07T03:22:21;2.10;99.90
10249;DHT22;5169;50.560;9.714;2023-12-07T03:24:49;2.10;99.90
10249;DHT22;5169;50.560;9.714;2023-12-07T03:27:18;2.10;99.90
10249;DHT22;5169;50.560;9.714;2023-12-07T03:29:44;2.10;99.90
10249;DHT22;5169;50.560;9.714;2023-12-07T03:32:09;2.10;99.90
10249;DHT22;5169;50.560;9.714;2023-12-07T03:34:37;2.00;99.90
10249;DHT22;5169;50.560;9.714;2023-12-07T03:37:03;2.10;99.90
10249;DHT22;5169;50.560;9.714;2023-12-07T03:39:29;2.10;99.90
10249;DHT22;5169;50.560;9.714;2023-12-07T03:41:55;2.30;99.90
10249;DHT22;5169;50.560;9.714;2023-12-07T03:44:20;2.40;99.90
10249;DHT22;5169;50.560;9.714;2023-12-07T03:46:48;2.40;99.90
10249;DHT22;5169;50.560;9.714;2023-12-07T03:49:13;2.40;99.90
10249;DHT22;5169;50.560;9.714;2023-12-07T03:51:39;2.40;99.90
10249;DHT22;5169;50.560;9.714;2023-12-07T03:54:05;2.30;99.90
10249;DHT22;5169;50.560;9.714;2023-12-07T03:56:33;2.30;99.90
10249;DHT22;5169;50.560;9.714;2023-12-07T03:58:58;2.20;99.90
10249;DHT22;5169;50.560;9.714;2023-12-07T04:01:25;2.20;99.90
10249;DHT22;5169;50.560;9.714;2023-12-07T04:03:52;2.20;99.90
10249;DHT22;5169;50.560;9.714;2023-12-07T04:06:18;2.30;99.90
10249;DHT22;5169;50.560;9.714;2023-12-07T04:08:46;2.40;99.90
10249;DHT22;5169;50.560;9.714;2023-12-07T04:11:12;2.50;99.90
10249;DHT22;5169;50.560;9.714;2023-12-07T04:13:38;2.40;99.90
10249;DHT22;5169;50.560;9.714;2023-12-07T04:16:04;2.40;99.90
10249;DHT22;5169;50.560;9.714;2023-12-07T04:18:29;2.40;99.90
10249;DHT22;5169;50.560;9.714;2023-12-07T04:20:55;2.30;99.90
10249;DHT22;5169;50.560;9.714;2023-12-07T04:23:21;2.30;99.90
10249;DHT22;5169;50.560;9.714;2023-12-07T04:25:46;2.20;99.90
10249;DHT22;5169;50.560;9.714;2023-12-07T04:28:12;2.20;99.90
10249;DHT22;5169;50.560;9.714;2023-12-07T04:30:40;2.30;99.90
10249;DHT22;5169;50.560;9.714;2023-12-07T04:33:05;2.40;99.90
10249;DHT22;5169;50.560;9.714;2023-12-07T04:35:32;2.30;99.90
10249;DHT22;5169;50.560;9.714;2023-12-07T04:37:57;2.30;99.90
10249;DHT22;5169;50.560;9.714;2023-12-07T04:40:25;2.30;99.90
10249;DHT22;5169;50.560;9.714;2023-12-07T04:42:51;2.20;99.90
10249;DHT22;5169;50.560;9.714;2023-12-07T04:45:17;2.20;99.90
10249;DHT22;5169;50.560;9.714;2023-12-07T04:47:45;2.20;99.90
10249;DHT22;5169;50.560;9.714;2023-12-07T04:50:11;2.20;99.90
10249;DHT22;5169;50.560;9.714;2023-12-07T04:52:37;2.30;99.90
10249;DHT22;5169;50.560;9.714;2023-12-07T04:55:02;2.30;99.90
10249;DHT22;5169;50.560;9.714;2023-12-07T04:57:28;2.40;99.90
10249;DHT22;5169;50.560;9.714;2023-12-07T04:59:54;2.50;99.90
10249;DHT22;5169;50.560;9.714;2023-12-07T05:02:21;2.50;99.90
10249;DHT22;5169;50.560;9.714;2023-12-07T05:04:48;2.40;99.90
10249;DHT22;5169;50.560;9.714;2023-12-07T05:07:13;2.40;99.90
10249;DHT22;5169;50.560;9.714;2023-12-07T05:09:39;2.40;99.90
10249;DHT22;5169;50.560;9.714;2023-12-07T05:12:06;2.40;99.90
10249;DHT22;5169;50.560;9.714;2023-12-07T05:14:34;2.40;99.90
10249;DHT22;5169;50.560;9.714;2023-12-07T05:17:03;2.40;99.90
10249;DHT22;5169;50.560;9.714;2023-12-07T05:19:28;2.40;99.90
10249;DHT22;5169;50.560;9.714;2023-12-07T05:21:54;2.60;99.90
10249;DHT22;5169;50.560;9.714;2023-12-07T05:24:20;2.40;99.90
10249;DHT22;5169;50.560;9.714;2023-12-07T05:26:48;2.20;99.90
10249;DHT22;5169;50.560;9.714;2023-12-07T05:29:14;2.20;99.90
10249;DHT22;5169;50.560;9.714;2023-12-07T05:31:40;2.10;99.90
10249;DHT22;5169;50.560;9.714;2023-12-07T05:34:07;2.00;99.90
10249;DHT22;5169;50.560;9.714;2023-12-07T05:36:32;2.00;99.90
10249;DHT22;5169;50.560;9.714;2023-12-07T05:38:58;1.80;99.90
10249;DHT22;5169;50.560;9.714;2023-12-07T05:41:26;1.70;99.90
10249;DHT22;5169;50.560;9.714;2023-12-07T05:43:54;1.80;99.90
10249;DHT22;5169;50.560;9.714;2023-12-07T05:46:20;1.80;99.90
10249;DHT22;5169;50.560;9.714;2023-12-07T05:48:47;1.80;99.90
10249;DHT22;5169;50.560;9.714;2023-12-07T05:51:15;1.70;99.90
10249;DHT22;5169;50.560;9.714;2023-12-07T05:53:44;1.80;99.90
10249;DHT22;5169;50.560;9.714;2023-12-07T05:56:12;1.70;99.90
10249;DHT22;5169;50.560;9.714;2023-12-07T05:58:40;1.70;99.90
10249;DHT22;5169;50.560;9.714;2023-12-07T06:01:05;1.70;99.90
10249;DHT22;5169;50.560;9.714;2023-12-07T06:03:33;1.70;99.90
10249;DHT22;5169;50.560;9.714;2023-12-07T06:05:58;1.70;99.90
10249;DHT22;5169;50.560;9.714;2023-12-07T06:08:24;1.80;99.90
10249;DHT22;5169;50.560;9.714;2023-12-07T06:10:49;1.80;99.90
10249;DHT22;5169;50.560;9.714;2023-12-07T06:13:15;1.80;99.90
10249;DHT22;5169;50.560;9.714;2023-12-07T06:15:43;1.80;99.90
10249;DHT22;5169;50.560;9.714;2023-12-07T06:18:13;1.80;99.90
10249;DHT22;5169;50.560;9.714;2023-12-07T06:20:44;1.90;99.90
10249;DHT22;5169;50.560;9.714;2023-12-07T06:23:11;1.90;99.90
10249;DHT22;5169;50.560;9.714;2023-12-07T06:25:39;1.90;99.90
10249;DHT22;5169;50.560;9.714;2023-12-07T06:28:07;1.80;99.90
10249;DHT22;5169;50.560;9.714;2023-12-07T06:30:33;1.80;99.90
10249;DHT22;5169;50.560;9.714;2023-12-07T06:32:59;1.80;99.90
10249;DHT22;5169;50.560;9.714;2023-12-07T06:35:25;1.80;99.90
10249;DHT22;5169;50.560;9.714;2023-12-07T06:37:50;1.80;99.90
10249;DHT22;5169;50.560;9.714;2023-12-07T06:40:16;1.70;99.90
10249;DHT22;5169;50.560;9.714;2023-12-07T06:42:41;1.70;99.90
10249;DHT22;5169;50.560;9.714;2023-12-07T06:45:07;1.80;99.90
10249;DHT22;5169;50.560;9.714;2023-12-07T06:47:40;1.80;99.90
10249;DHT22;5169;50.560;9.714;2023-12-07T06:50:08;1.70;99.90
10249;DHT22;5169;50.560;9.714;2023-12-07T06:52:35;1.70;99.90
10249;DHT22;5169;50.560;9.714;2023-12-07T06:55:01;1.70;99.90
10249;DHT22;5169;50.560;9.714;2023-12-07T06:57:27;1.80;99.90
10249;DHT22;5169;50.560;9.714;2023-12-07T06:59:54;1.70;99.90
10249;DHT22;5169;50.560;9.714;2023-12-07T07:02:22;1.70;99.90
10249;DHT22;5169;50.560;9.714;2023-12-07T07:04:48;1.70;99.90
10249;DHT22;5169;50.560;9.714;2023-12-07T07:07:15;1.70;99.90
10249;DHT22;5169;50.560;9.714;2023-12-07T07:09:40;1.70;99.90
10249;DHT22;5169;50.560;9.714;2023-12-07T07:12:06;1.80;99.90
10249;DHT22;5169;50.560;9.714;2023-12-07T07:14:36;1.90;99.90
10249;DHT22;5169;50.560;9.714;2023-12-07T07:17:02;1.80;99.90
10249;DHT22;5169;50.560;9.714;2023-12-07T07:19:30;1.80;99.90
10249;DHT22;5169;50.560;9.714;2023-12-07T07:21:55;1.80;99.90
10249;DHT22;5169;50.560;9.714;2023-12-07T07:24:21;1.70;99.90
10249;DHT22;5169;50.560;9.714;2023-12-07T07:26:46;1.80;99.90
10249;DHT22;5169;50.560;9.714;2023-12-07T07:29:12;1.70;99.90
10249;DHT22;5169;50.560;9.714;2023-12-07T07:31:37;1.80;99.90
10249;DHT22;5169;50.560;9.714;2023-12-07T07:34:03;1.80;99.90
10249;DHT22;5169;50.560;9.714;2023-12-07T07:36:32;1.90;99.90
10249;DHT22;5169;50.560;9.714;2023-12-07T07:39:02;1.90;99.90
10249;DHT22;5169;50.560;9.714;2023-12-07T07:41:29;1.90;99.90
10249;DHT22;5169;50.560;9.714;2023-12-07T07:43:55;1.90;99.90
10249;DHT22;5169;50.560;9.714;2023-12-07T07:46:24;1.80;99.90
10249;DHT22;5169;50.560;9.714;2023-12-07T07:48:52;1.90;99.90
10249;DHT22;5169;50.560;9.714;2023-12-07T07:51:20;2.00;99.90
10249;DHT22;5169;50.560;9.714;2023-12-07T07:53:46;2.10;99.90
10249;DHT22;5169;50.560;9.714;2023-12-07T07:56:13;2.10;99.90
10249;DHT22;5169;50.560;9.714;2023-12-07T07:58:39;2.10;99.90
10249;DHT22;5169;50.560;9.714;2023-12-07T08:01:04;2.10;99.90
10249;DHT22;5169;50.560;9.714;2023-12-07T08:03:31;2.10;99.90
10249;DHT22;5169;50.560;9.714;2023-12-07T08:05:56;2.20;99.90
10249;DHT22;5169;50.560;9.714;2023-12-07T08:08:22;2.20;99.90
10249;DHT22;5169;50.560;9.714;2023-12-07T08:10:47;2.20;99.90
10249;DHT22;5169;50.560;9.714;2023-12-07T08:13:13;2.20;99.90
10249;DHT22;5169;50.560;9.714;2023-12-07T08:15:38;2.10;99.90
10249;DHT22;5169;50.560;9.714;2023-12-07T08:18:06;2.20;99.90
10249;DHT22;5169;50.560;9.714;2023-12-07T08:20:34;2.30;99.90
10249;DHT22;5169;50.560;9.714;2023-12-07T08:23:00;2.50;99.90
10249;DHT22;5169;50.560;9.714;2023-12-07T08:25:27;2.60;99.90
10249;DHT22;5169;50.560;9.714;2023-12-07T08:27:53;2.70;99.90
10249;DHT22;5169;50.560;9.714;2023-12-07T08:30:19;2.80;99.90
10249;DHT22;5169;50.560;9.714;2023-12-07T08:32:45;2.70;99.90
10249;DHT22;5169;50.560;9.714;2023-12-07T08:35:13;2.70;99.90
10249;DHT22;5169;50.560;9.714;2023-12-07T08:37:38;2.80;99.90
10249;DHT22;5169;50.560;9.714;2023-12-07T08:40:07;3.00;99.90
10249;DHT22;5169;50.560;9.714;2023-12-07T08:42:36;3.20;99.90
10249;DHT22;5169;50.560;9.714;2023-12-07T08:45:02;3.40;99.90
10249;DHT22;5169;50.560;9.714;2023-12-07T08:47:28;3.60;99.90
10249;DHT22;5169;50.560;9.714;2023-12-07T08:49:55;3.70;99.90
10249;DHT22;5169;50.560;9.714;2023-12-07T08:52:21;3.60;99.90
10249;DHT22;5169;50.560;9.714;2023-12-07T08:54:46;3.30;99.90
10249;DHT22;5169;50.560;9.714;2023-12-07T08:57:12;3.10;99.90
10249;DHT22;5169;50.560;9.714;2023-12-07T08:59:40;2.90;99.90
10249;DHT22;5169;50.560;9.714;2023-12-07T09:02:05;3.10;99.90
10249;DHT22;5169;50.560;9.714;2023-12-07T09:04:33;3.70;99.90
10249;DHT22;5169;50.560;9.714;2023-12-07T09:07:01;3.80;99.90
10249;DHT22;5169;50.560;9.714;2023-12-07T09:09:29;3.70;99.90
10249;DHT22;5169;50.560;9.714;2023-12-07T09:11:54;3.70;99.90
10249;DHT22;5169;50.560;9.714;2023-12-07T09:14:20;3.90;99.90
10249;DHT22;5169;50.560;9.714;2023-12-07T09:16:46;4.60;99.90
10249;DHT22;5169;50.560;9.714;2023-12-07T09:19:12;5.20;99.90
10249;DHT22;5169;50.560;9.714;2023-12-07T09:21:39;6.40;99.90
10249;DHT22;5169;50.560;9.714;2023-12-07T09:24:05;7.20;99.90
10249;DHT22;5169;50.560;9.714;2023-12-07T09:26:34;7.90;99.90
10249;DHT22;5169;50.560;9.714;2023-12-07T09:29:00;8.80;99.90
10249;DHT22;5169;50.560;9.714;2023-12-07T09:31:27;9.70;99.90
10249;DHT22;5169;50.560;9.714;2023-12-07T09:33:53;10.20;99.90
10249;DHT22;5169;50.560;9.714;2023-12-07T09:36:19;10.60;99.90
10249;DHT22;5169;50.560;9.714;2023-12-07T09:38:47;10.80;99.90
10249;DHT22;5169;50.560;9.714;2023-12-07T09:41:15;11.20;99.90
10249;DHT22;5169;50.560;9.714;2023-12-07T09:43:41;10.70;99.90
10249;DHT22;5169;50.560;9.714;2023-12-07T09:46:09;11.30;99.90
10249;DHT22;5169;50.560;9.714;2023-12-07T09:48:37;11.40;99.90
10249;DHT22;5169;50.560;9.714;2023-12-07T09:51:08;11.90;98.90
10249;DHT22;5169;50.560;9.714;2023-12-07T09:53:35;11.30;98.60
10249;DHT22;5169;50.560;9.714;2023-12-07T09:56:01;9.80;99.90
10249;DHT22;5169;50.560;9.714;2023-12-07T09:58:29;9.20;99.90
10249;DHT22;5169;50.560;9.714;2023-12-07T10:00:54;9.50;99.90
10249;DHT22;5169;50.560;9.714;2023-12-07T10:03:22;10.20;99.90
10249;DHT22;5169;50.560;9.714;2023-12-07T10:05:55;11.20;99.90
10249;DHT22;5169;50.560;9.714;2023-12-07T10:08:29;11.70;98.80
10249;DHT22;5169;50.560;9.714;2023-12-07T10:11:21;11.50;98.30
10249;DHT22;5169;50.560;9.714;2023-12-07T10:13:46;11.40;99.50
10249;DHT22;5169;50.560;9.714;2023-12-07T10:16:14;12.30;98.90
10249;DHT22;5169;50.560;9.714;2023-12-07T10:18:44;13.00;97.90
10249;DHT22;5169;50.560;9.714;2023-12-07T10:21:14;13.70;97.70
10249;DHT22;5169;50.560;9.714;2023-12-07T10:23:41;15.00;95.70
10249;DHT22;5169;50.560;9.714;2023-12-07T10:26:11;14.40;95.70
10249;DHT22;5169;50.560;9.714;2023-12-07T10:28:41;12.90;96.50
10249;DHT22;5169;50.560;9.714;2023-12-07T10:31:10;11.80;98.10
10249;DHT22;5169;50.560;9.714;2023-12-07T10:33:36;9.90;99.90
10249;DHT22;5169;50.560;9.714;2023-12-07T10:36:04;9.30;99.90
10249;DHT22;5169;50.560;9.714;2023-12-07T10:38:29;9.80;99.90
10249;DHT22;5169;50.560;9.714;2023-12-07T10:41:04;9.20;99.90
10249;DHT22;5169;50.560;9.714;2023-12-07T10:43:37;8.60;99.90
10249;DHT22;5169;50.560;9.714;2023-12-07T10:46:05;8.00;99.90
10249;DHT22;5169;50.560;9.714;2023-12-07T10:48:32;7.20;99.90
10249;DHT22;5169;50.560;9.714;2023-12-07T10:51:00;6.40;99.90
10249;DHT22;5169;50.560;9.714;2023-12-07T10:53:29;5.70;99.90
10249;DHT22;5169;50.560;9.714;2023-12-07T10:56:01;5.10;99.90
10249;DHT22;5169;50.560;9.714;2023-12-07T10:58:27;4.80;99.90
10249;DHT22;5169;50.560;9.714;2023-12-07T11:00:53;4.70;99.90
10249;DHT22;5169;50.560;9.714;2023-12-07T11:03:22;4.80;99.90
10249;DHT22;5169;50.560;9.714;2023-12-07T11:05:48;4.90;99.90
10249;DHT22;5169;50.560;9.714;2023-12-07T11:08:46;5.10;99.90
10249;DHT22;5169;50.560;9.714;2023-12-07T11:11:34;5.10;99.90
10249;DHT22;5169;50.560;9.714;2023-12-07T11:14:07;4.80;99.90
10249;DHT22;5169;50.560;9.714;2023-12-07T11:16:40;5.10;99.90
10249;DHT22;5169;50.560;9.714;2023-12-07T11:19:44;5.80;99.90
10249;DHT22;5169;50.560;9.714;2023-12-07T11:22:14;6.30;99.90
10249;DHT22;5169;50.560;9.714;2023-12-07T11:24:56;6.30;99.90
10249;DHT22;5169;50.560;9.714;2023-12-07T11:27:32;6.10;99.90
10249;DHT22;5169;50.560;9.714;2023-12-07T11:30:02;6.50;99.90
10249;DHT22;5169;50.560;9.714;2023-12-07T11:32:28;6.60;99.90
10249;DHT22;5169;50.560;9.714;2023-12-07T11:35:02;7.00;99.90
10249;DHT22;5169;50.560;9.714;2023-12-07T11:40:34;8.20;99.90
10249;DHT22;5169;50.560;9.714;2023-12-07T11:43:00;9.40;99.90
10249;DHT22;5169;50.560;9.714;2023-12-07T11:45:49;10.40;99.90
10249;DHT22;5169;50.560;9.714;2023-12-07T11:48:16;11.90;99.90
10249;DHT22;5169;50.560;9.714;2023-12-07T11:51:04;12.80;99.10
10249;DHT22;5169;50.560;9.714;2023-12-07T11:53:31;14.30;95.80
10249;DHT22;5169;50.560;9.714;2023-12-07T11:56:04;14.70;93.80
10249;DHT22;5169;50.560;9.714;2023-12-07T11:58:31;14.70;93.40
10249;DHT22;5169;50.560;9.714;2023-12-07T12:01:00;13.40;94.30
10249;DHT22;5169;50.560;9.714;2023-12-07T12:03:29;12.60;95.90
10249;DHT22;5169;50.560;9.714;2023-12-07T12:05:58;12.90;96.20
10249;DHT22;5169;50.560;9.714;2023-12-07T12:08:27;12.70;95.30
10249;DHT22;5169;50.560;9.714;2023-12-07T12:10:54;12.20;95.20
10249;DHT22;5169;50.560;9.714;2023-12-07T12:13:30;11.30;97.50
10249;DHT22;5169;50.560;9.714;2023-12-07T12:15:58;11.70;97.70
10249;DHT22;5169;50.560;9.714;2023-12-07T12:18:24;12.30;97.50
10249;DHT22;5169;50.560;9.714;2023-12-07T12:20:51;12.60;95.60
10249;DHT22;5169;50.560;9.714;2023-12-07T12:23:18;11.70;95.50
10249;DHT22;5169;50.560;9.714;2023-12-07T12:25:44;10.90;97.90
10249;DHT22;5169;50.560;9.714;2023-12-07T12:28:10;10.70;97.80
10249;DHT22;5169;50.560;9.714;2023-12-07T12:30:39;10.20;99.00
10249;DHT22;5169;50.560;9.714;2023-12-07T12:33:05;10.30;98.70
10249;DHT22;5169;50.560;9.714;2023-12-07T12:35:30;9.70;99.70
10249;DHT22;5169;50.560;9.714;2023-12-07T12:37:56;9.20;99.90
10249;DHT22;5169;50.560;9.714;2023-12-07T12:40:23;8.20;99.90
10249;DHT22;5169;50.560;9.714;2023-12-07T12:42:51;7.30;99.90
10249;DHT22;5169;50.560;9.714;2023-12-07T12:45:17;7.10;99.90
10249;DHT22;5169;50.560;9.714;2023-12-07T12:47:46;7.00;99.90
10249;DHT22;5169;50.560;9.714;2023-12-07T12:50:34;7.00;99.90
10249;DHT22;5169;50.560;9.714;2023-12-07T12:53:03;8.20;99.90
10249;DHT22;5169;50.560;9.714;2023-12-07T12:55:33;9.10;99.90
10249;DHT22;5169;50.560;9.714;2023-12-07T12:58:00;10.00;99.90
10249;DHT22;5169;50.560;9.714;2023-12-07T13:00:28;10.10;99.70
10249;DHT22;5169;50.560;9.714;2023-12-07T13:02:55;10.10;99.90
10249;DHT22;5169;50.560;9.714;2023-12-07T13:05:23;10.30;99.90
10249;DHT22;5169;50.560;9.714;2023-12-07T13:07:49;9.50;99.90
10249;DHT22;5169;50.560;9.714;2023-12-07T13:10:15;8.30;99.90
10249;DHT22;5169;50.560;9.714;2023-12-07T13:12:41;7.30;99.90
10249;DHT22;5169;50.560;9.714;2023-12-07T13:15:07;6.60;99.90
10249;DHT22;5169;50.560;9.714;2023-12-07T13:17:33;6.40;99.90
10249;DHT22;5169;50.560;9.714;2023-12-07T13:19:59;6.20;99.90
10249;DHT22;5169;50.560;9.714;2023-12-07T13:22:24;6.00;99.90
10249;DHT22;5169;50.560;9.714;2023-12-07T13:24:54;5.70;99.90
10249;DHT22;5169;50.560;9.714;2023-12-07T13:27:19;5.70;99.90
10249;DHT22;5169;50.560;9.714;2023-12-07T13:29:47;5.60;99.90
10249;DHT22;5169;50.560;9.714;2023-12-07T13:32:13;5.40;99.90
10249;DHT22;5169;50.560;9.714;2023-12-07T13:34:41;5.50;99.90
10249;DHT22;5169;50.560;9.714;2023-12-07T13:37:06;5.50;99.90
10249;DHT22;5169;50.560;9.714;2023-12-07T13:39:32;5.40;99.90
10249;DHT22;5169;50.560;9.714;2023-12-07T13:41:58;5.10;99.90
10249;DHT22;5169;50.560;9.714;2023-12-07T13:44:24;4.90;99.90
10249;DHT22;5169;50.560;9.714;2023-12-07T13:46:50;4.90;99.90
10249;DHT22;5169;50.560;9.714;2023-12-07T13:49:16;4.90;99.90
10249;DHT22;5169;50.560;9.714;2023-12-07T13:51:44;4.90;99.90
10249;DHT22;5169;50.560;9.714;2023-12-07T13:54:12;4.80;99.90
10249;DHT22;5169;50.560;9.714;2023-12-07T13:56:37;4.70;99.90
10249;DHT22;5169;50.560;9.714;2023-12-07T13:59:05;4.80;99.90
10249;DHT22;5169;50.560;9.714;2023-12-07T14:01:36;4.70;99.90
10249;DHT22;5169;50.560;9.714;2023-12-07T14:04:02;4.60;99.90
10249;DHT22;5169;50.560;9.714;2023-12-07T14:06:30;4.50;99.90
10249;DHT22;5169;50.560;9.714;2023-12-07T14:08:56;4.40;99.90
10249;DHT22;5169;50.560;9.714;2023-12-07T14:11:21;4.20;99.90
10249;DHT22;5169;50.560;9.714;2023-12-07T14:13:47;4.00;99.90
10249;DHT22;5169;50.560;9.714;2023-12-07T14:16:16;3.90;99.90
10249;DHT22;5169;50.560;9.714;2023-12-07T14:18:41;3.80;99.90
10249;DHT22;5169;50.560;9.714;2023-12-07T14:21:07;3.70;99.90
10249;DHT22;5169;50.560;9.714;2023-12-07T14:23:33;3.60;99.90
10249;DHT22;5169;50.560;9.714;2023-12-07T14:25:59;3.60;99.90
10249;DHT22;5169;50.560;9.714;2023-12-07T14:28:27;3.60;99.90
10249;DHT22;5169;50.560;9.714;2023-12-07T14:30:56;3.60;99.90
10249;DHT22;5169;50.560;9.714;2023-12-07T14:33:22;3.60;99.90
10249;DHT22;5169;50.560;9.714;2023-12-07T14:35:48;3.50;99.90
10249;DHT22;5169;50.560;9.714;2023-12-07T14:38:14;3.50;99.90
10249;DHT22;5169;50.560;9.714;2023-12-07T14:40:40;3.30;99.90
10249;DHT22;5169;50.560;9.714;2023-12-07T14:43:05;3.30;99.90
10249;DHT22;5169;50.560;9.714;2023-12-07T14:45:31;3.20;99.90
10249;DHT22;5169;50.560;9.714;2023-12-07T14:47:59;3.20;99.90
10249;DHT22;5169;50.560;9.714;2023-12-07T14:50:27;3.20;99.90
10249;DHT22;5169;50.560;9.714;2023-12-07T14:52:52;3.10;99.90
10249;DHT22;5169;50.560;9.714;2023-12-07T14:55:18;3.00;99.90
10249;DHT22;5169;50.560;9.714;2023-12-07T14:57:45;3.10;99.90
10249;DHT22;5169;50.560;9.714;2023-12-07T15:00:11;3.10;99.90
10249;DHT22;5169;50.560;9.714;2023-12-07T15:02:37;3.00;99.90
10249;DHT22;5169;50.560;9.714;2023-12-07T15:05:03;2.90;99.90
10249;DHT22;5169;50.560;9.714;2023-12-07T15:07:30;2.80;99.90
10249;DHT22;5169;50.560;9.714;2023-12-07T15:09:55;2.70;99.90
10249;DHT22;5169;50.560;9.714;2023-12-07T15:12:21;2.60;99.90
10249;DHT22;5169;50.560;9.714;2023-12-07T15:14:46;2.40;99.90
10249;DHT22;5169;50.560;9.714;2023-12-07T15:17:12;2.40;99.90
10249;DHT22;5169;50.560;9.714;2023-12-07T15:19:40;2.40;99.90
10249;DHT22;5169;50.560;9.714;2023-12-07T15:22:06;2.40;99.90
10249;DHT22;5169;50.560;9.714;2023-12-07T15:24:34;2.30;99.90
10249;DHT22;5169;50.560;9.714;2023-12-07T15:26:59;2.30;99.90
10249;DHT22;5169;50.560;9.714;2023-12-07T15:29:26;2.30;99.90
10249;DHT22;5169;50.560;9.714;2023-12-07T15:31:51;2.20;99.90
10249;DHT22;5169;50.560;9.714;2023-12-07T15:34:17;2.20;99.90
10249;DHT22;5169;50.560;9.714;2023-12-07T15:36:42;2.10;99.90
10249;DHT22;5169;50.560;9.714;2023-12-07T15:39:08;2.10;99.90
10249;DHT22;5169;50.560;9.714;2023-12-07T15:41:37;2.00;99.90
10249;DHT22;5169;50.560;9.714;2023-12-07T15:44:02;2.20;99.90
10249;DHT22;5169;50.560;9.714;2023-12-07T15:46:30;2.20;99.90
10249;DHT22;5169;50.560;9.714;2023-12-07T15:48:56;2.40;99.90
10249;DHT22;5169;50.560;9.714;2023-12-07T15:51:22;2.50;99.90
10249;DHT22;5169;50.560;9.714;2023-12-07T15:53:47;2.40;99.90
10249;DHT22;5169;50.560;9.714;2023-12-07T15:56:15;2.40;99.90
10249;DHT22;5169;50.560;9.714;2023-12-07T15:58:41;2.30;99.90
10249;DHT22;5169;50.560;9.714;2023-12-07T16:01:07;2.30;99.90
10249;DHT22;5169;50.560;9.714;2023-12-07T16:03:32;2.10;99.90
10249;DHT22;5169;50.560;9.714;2023-12-07T16:06:00;2.00;99.90
10249;DHT22;5169;50.560;9.714;2023-12-07T16:08:26;1.90;99.90